sensor_id;sensor_type;location;lat;lon;timestamp;P1;durP1;ratioP1;P2;durP2;ratioP2
58784;SDS011;44557;51.862;19.378;2023-08-12T00:01:35;18.80;;;14.00;;
58784;SDS011;44557;51.862;19.378;2023-08-12T00:03:37;18.30;;;13.60;;
58784;SDS011;44557;51.862;19.378;2023-08-12T00:05:39;14.50;;;9.80;;
58784;SDS011;44557;51.862;19.378;2023-08-12T00:07:41;14.30;;;9.90;;
58784;SDS011;44557;51.862;19.378;2023-08-12T00:09:44;14.00;;;8.90;;
58784;SDS011;44557;51.862;19.378;2023-08-12T00:11:46;19.00;;;11.80;;
58784;SDS011;44557;51.862;19.378;2023-08-12T00:13:51;15.10;;;9.40;;
58784;SDS011;44557;51.862;19.378;2023-08-12T00:15:54;17.40;;;10.80;;
58784;SDS011;44557;51.862;19.378;2023-08-12T00:17:55;13.90;;;9.90;;
58784;SDS011;44557;51.862;19.378;2023-08-12T00:19:57;15.20;;;9.30;;
58784;SDS011;44557;51.862;19.378;2023-08-12T00:22:00;13.30;;;8.20;;
58784;SDS011;44557;51.862;19.378;2023-08-12T00:24:02;14.10;;;7.40;;
58784;SDS011;44557;51.862;19.378;2023-08-12T00:26:04;10.80;;;7.10;;
58784;SDS011;44557;51.862;19.378;2023-08-12T00:28:06;13.10;;;6.90;;
58784;SDS011;44557;51.862;19.378;2023-08-12T00:30:08;11.50;;;7.70;;
58784;SDS011;44557;51.862;19.378;2023-08-12T00:32:10;13.50;;;7.60;;
58784;SDS011;44557;51.862;19.378;2023-08-12T00:34:12;16.50;;;7.70;;
58784;SDS011;44557;51.862;19.378;2023-08-12T00:36:14;11.40;;;7.40;;
58784;SDS011;44557;51.862;19.378;2023-08-12T00:38:16;9.10;;;5.10;;
58784;SDS011;44557;51.862;19.378;2023-08-12T00:40:17;12.10;;;7.00;;
58784;SDS011;44557;51.862;19.378;2023-08-12T00:42:20;10.80;;;6.60;;
58784;SDS011;44557;51.862;19.378;2023-08-12T00:44:22;10.50;;;6.10;;
58784;SDS011;44557;51.862;19.378;2023-08-12T00:46:26;7.70;;;4.30;;
58784;SDS011;44557;51.862;19.378;2023-08-12T00:48:28;11.40;;;5.90;;
58784;SDS011;44557;51.862;19.378;2023-08-12T00:50:30;10.80;;;7.00;;
58784;SDS011;44557;51.862;19.378;2023-08-12T00:52:32;11.80;;;6.60;;
58784;SDS011;44557;51.862;19.378;2023-08-12T00:54:34;10.40;;;6.60;;
58784;SDS011;44557;51.862;19.378;2023-08-12T00:56:36;13.20;;;8.40;;
58784;SDS011;44557;51.862;19.378;2023-08-12T00:58:39;11.30;;;7.20;;
58784;SDS011;44557;51.862;19.378;2023-08-12T01:00:41;8.70;;;4.60;;
58784;SDS011;44557;51.862;19.378;2023-08-12T01:02:46;10.20;;;6.20;;
58784;SDS011;44557;51.862;19.378;2023-08-12T01:04:50;12.30;;;7.20;;
58784;SDS011;44557;51.862;19.378;2023-08-12T01:06:52;14.60;;;8.30;;
58784;SDS011;44557;51.862;19.378;2023-08-12T01:08:56;10.10;;;5.80;;
58784;SDS011;44557;51.862;19.378;2023-08-12T01:11:03;8.40;;;3.80;;
58784;SDS011;44557;51.862;19.378;2023-08-12T01:15:20;8.40;;;4.20;;
58784;SDS011;44557;51.862;19.378;2023-08-12T01:17:25;9.70;;;3.40;;
58784;SDS011;44557;51.862;19.378;2023-08-12T01:19:34;8.10;;;3.60;;
58784;SDS011;44557;51.862;19.378;2023-08-12T01:21:40;7.70;;;3.30;;
58784;SDS011;44557;51.862;19.378;2023-08-12T01:23:45;7.60;;;3.70;;
58784;SDS011;44557;51.862;19.378;2023-08-12T01:25:47;6.20;;;2.70;;
58784;SDS011;44557;51.862;19.378;2023-08-12T01:27:58;6.70;;;2.60;;
58784;SDS011;44557;51.862;19.378;2023-08-12T01:29:59;6.20;;;3.00;;
58784;SDS011;44557;51.862;19.378;2023-08-12T01:32:12;6.90;;;2.90;;
58784;SDS011;44557;51.862;19.378;2023-08-12T01:36:34;7.90;;;2.90;;
58784;SDS011;44557;51.862;19.378;2023-08-12T01:38:38;7.20;;;2.90;;
58784;SDS011;44557;51.862;19.378;2023-08-12T01:40:41;7.10;;;3.30;;
58784;SDS011;44557;51.862;19.378;2023-08-12T01:42:44;8.20;;;3.60;;
58784;SDS011;44557;51.862;19.378;2023-08-12T01:44:47;7.20;;;3.70;;
58784;SDS011;44557;51.862;19.378;2023-08-12T01:46:49;6.40;;;3.10;;
58784;SDS011;44557;51.862;19.378;2023-08-12T01:48:51;7.00;;;3.20;;
58784;SDS011;44557;51.862;19.378;2023-08-12T01:50:53;7.60;;;3.10;;
58784;SDS011;44557;51.862;19.378;2023-08-12T01:52:55;8.10;;;3.30;;
58784;SDS011;44557;51.862;19.378;2023-08-12T01:54:57;8.20;;;3.90;;
58784;SDS011;44557;51.862;19.378;2023-08-12T01:57:02;7.50;;;3.10;;
58784;SDS011;44557;51.862;19.378;2023-08-12T01:59:06;5.70;;;2.90;;
58784;SDS011;44557;51.862;19.378;2023-08-12T02:01:08;5.40;;;3.10;;
58784;SDS011;44557;51.862;19.378;2023-08-12T02:03:10;7.00;;;3.30;;
58784;SDS011;44557;51.862;19.378;2023-08-12T02:05:12;7.00;;;3.00;;
58784;SDS011;44557;51.862;19.378;2023-08-12T02:07:15;7.50;;;3.40;;
58784;SDS011;44557;51.862;19.378;2023-08-12T02:09:19;8.10;;;3.50;;
58784;SDS011;44557;51.862;19.378;2023-08-12T02:11:23;8.10;;;3.30;;
58784;SDS011;44557;51.862;19.378;2023-08-12T02:13:25;7.00;;;3.40;;
58784;SDS011;44557;51.862;19.378;2023-08-12T02:15:27;8.30;;;3.80;;
58784;SDS011;44557;51.862;19.378;2023-08-12T02:17:29;8.50;;;3.70;;
58784;SDS011;44557;51.862;19.378;2023-08-12T02:19:31;7.50;;;3.80;;
58784;SDS011;44557;51.862;19.378;2023-08-12T02:21:54;8.00;;;3.30;;
58784;SDS011;44557;51.862;19.378;2023-08-12T02:23:56;7.50;;;3.80;;
58784;SDS011;44557;51.862;19.378;2023-08-12T02:25:58;8.00;;;3.70;;
58784;SDS011;44557;51.862;19.378;2023-08-12T02:28:00;6.30;;;3.60;;
58784;SDS011;44557;51.862;19.378;2023-08-12T02:30:03;7.00;;;3.50;;
58784;SDS011;44557;51.862;19.378;2023-08-12T02:32:05;6.60;;;3.00;;
58784;SDS011;44557;51.862;19.378;2023-08-12T02:34:09;8.00;;;3.30;;
58784;SDS011;44557;51.862;19.378;2023-08-12T02:36:12;6.80;;;3.70;;
58784;SDS011;44557;51.862;19.378;2023-08-12T02:38:38;7.20;;;3.90;;
58784;SDS011;44557;51.862;19.378;2023-08-12T02:40:42;9.00;;;3.60;;
58784;SDS011;44557;51.862;19.378;2023-08-12T02:42:44;10.10;;;3.80;;
58784;SDS011;44557;51.862;19.378;2023-08-12T02:45:00;7.10;;;3.50;;
58784;SDS011;44557;51.862;19.378;2023-08-12T02:47:05;7.90;;;3.40;;
58784;SDS011;44557;51.862;19.378;2023-08-12T02:49:16;7.70;;;3.70;;
58784;SDS011;44557;51.862;19.378;2023-08-12T02:51:38;7.80;;;3.20;;
58784;SDS011;44557;51.862;19.378;2023-08-12T02:53:41;8.00;;;3.30;;
58784;SDS011;44557;51.862;19.378;2023-08-12T02:55:48;6.40;;;3.20;;
58784;SDS011;44557;51.862;19.378;2023-08-12T02:57:50;6.60;;;3.10;;
58784;SDS011;44557;51.862;19.378;2023-08-12T02:59:52;4.80;;;2.50;;
58784;SDS011;44557;51.862;19.378;2023-08-12T03:01:57;7.50;;;2.70;;
58784;SDS011;44557;51.862;19.378;2023-08-12T03:04:06;6.60;;;2.80;;
58784;SDS011;44557;51.862;19.378;2023-08-12T03:06:10;6.00;;;2.60;;
58784;SDS011;44557;51.862;19.378;2023-08-12T03:08:12;6.30;;;2.70;;
58784;SDS011;44557;51.862;19.378;2023-08-12T03:10:14;6.60;;;2.60;;
58784;SDS011;44557;51.862;19.378;2023-08-12T03:12:16;9.10;;;2.90;;
58784;SDS011;44557;51.862;19.378;2023-08-12T03:14:18;7.40;;;2.70;;
58784;SDS011;44557;51.862;19.378;2023-08-12T03:16:21;6.50;;;3.00;;
58784;SDS011;44557;51.862;19.378;2023-08-12T03:18:28;6.80;;;2.50;;
58784;SDS011;44557;51.862;19.378;2023-08-12T03:20:31;6.60;;;2.50;;
58784;SDS011;44557;51.862;19.378;2023-08-12T03:22:33;6.10;;;2.40;;
58784;SDS011;44557;51.862;19.378;2023-08-12T03:24:35;7.90;;;3.00;;
58784;SDS011;44557;51.862;19.378;2023-08-12T03:28:55;5.80;;;2.80;;
58784;SDS011;44557;51.862;19.378;2023-08-12T03:31:01;8.40;;;3.20;;
58784;SDS011;44557;51.862;19.378;2023-08-12T03:33:11;6.20;;;2.50;;
58784;SDS011;44557;51.862;19.378;2023-08-12T03:35:16;5.80;;;2.80;;
58784;SDS011;44557;51.862;19.378;2023-08-12T03:37:26;7.90;;;2.90;;
58784;SDS011;44557;51.862;19.378;2023-08-12T03:39:31;6.10;;;2.60;;
58784;SDS011;44557;51.862;19.378;2023-08-12T03:41:37;6.00;;;2.80;;
58784;SDS011;44557;51.862;19.378;2023-08-12T03:43:40;7.10;;;3.00;;
58784;SDS011;44557;51.862;19.378;2023-08-12T03:45:45;6.60;;;3.30;;
58784;SDS011;44557;51.862;19.378;2023-08-12T03:47:48;6.00;;;2.90;;
58784;SDS011;44557;51.862;19.378;2023-08-12T03:50:33;9.90;;;3.10;;
58784;SDS011;44557;51.862;19.378;2023-08-12T03:52:35;5.90;;;2.80;;
58784;SDS011;44557;51.862;19.378;2023-08-12T03:54:37;6.40;;;2.70;;
58784;SDS011;44557;51.862;19.378;2023-08-12T03:56:39;6.10;;;2.70;;
58784;SDS011;44557;51.862;19.378;2023-08-12T03:58:42;5.70;;;2.70;;
58784;SDS011;44557;51.862;19.378;2023-08-12T04:00:50;6.10;;;3.10;;
58784;SDS011;44557;51.862;19.378;2023-08-12T04:02:52;5.60;;;2.90;;
58784;SDS011;44557;51.862;19.378;2023-08-12T04:04:55;6.90;;;3.10;;
58784;SDS011;44557;51.862;19.378;2023-08-12T04:06:57;5.40;;;2.60;;
58784;SDS011;44557;51.862;19.378;2023-08-12T04:09:00;7.80;;;3.10;;
58784;SDS011;44557;51.862;19.378;2023-08-12T04:11:01;7.20;;;2.80;;
58784;SDS011;44557;51.862;19.378;2023-08-12T04:13:03;7.70;;;2.90;;
58784;SDS011;44557;51.862;19.378;2023-08-12T04:15:08;7.10;;;2.50;;
58784;SDS011;44557;51.862;19.378;2023-08-12T04:17:10;5.80;;;2.80;;
58784;SDS011;44557;51.862;19.378;2023-08-12T04:19:32;7.00;;;3.00;;
58784;SDS011;44557;51.862;19.378;2023-08-12T04:21:34;6.20;;;2.50;;
58784;SDS011;44557;51.862;19.378;2023-08-12T04:23:47;4.80;;;2.90;;
58784;SDS011;44557;51.862;19.378;2023-08-12T04:25:49;5.10;;;2.50;;
58784;SDS011;44557;51.862;19.378;2023-08-12T04:27:51;7.50;;;2.60;;
58784;SDS011;44557;51.862;19.378;2023-08-12T04:29:53;5.40;;;2.50;;
58784;SDS011;44557;51.862;19.378;2023-08-12T04:31:57;7.70;;;2.80;;
58784;SDS011;44557;51.862;19.378;2023-08-12T04:36:17;6.50;;;2.40;;
58784;SDS011;44557;51.862;19.378;2023-08-12T04:38:24;8.20;;;2.70;;
58784;SDS011;44557;51.862;19.378;2023-08-12T04:40:46;5.20;;;2.50;;
58784;SDS011;44557;51.862;19.378;2023-08-12T04:42:48;7.10;;;2.50;;
58784;SDS011;44557;51.862;19.378;2023-08-12T04:44:50;6.50;;;2.90;;
58784;SDS011;44557;51.862;19.378;2023-08-12T04:49:04;6.80;;;2.60;;
58784;SDS011;44557;51.862;19.378;2023-08-12T04:51:06;5.50;;;2.60;;
58784;SDS011;44557;51.862;19.378;2023-08-12T04:53:10;7.20;;;2.90;;
58784;SDS011;44557;51.862;19.378;2023-08-12T04:55:12;8.90;;;2.70;;
58784;SDS011;44557;51.862;19.378;2023-08-12T04:57:14;7.80;;;2.70;;
58784;SDS011;44557;51.862;19.378;2023-08-12T04:59:16;8.10;;;2.40;;
58784;SDS011;44557;51.862;19.378;2023-08-12T05:01:18;6.40;;;2.50;;
58784;SDS011;44557;51.862;19.378;2023-08-12T05:03:19;11.50;;;2.60;;
58784;SDS011;44557;51.862;19.378;2023-08-12T05:05:21;5.80;;;2.80;;
58784;SDS011;44557;51.862;19.378;2023-08-12T05:07:24;8.80;;;3.10;;
58784;SDS011;44557;51.862;19.378;2023-08-12T05:09:28;5.80;;;2.60;;
58784;SDS011;44557;51.862;19.378;2023-08-12T05:11:33;5.40;;;2.60;;
58784;SDS011;44557;51.862;19.378;2023-08-12T05:13:35;6.30;;;2.90;;
58784;SDS011;44557;51.862;19.378;2023-08-12T05:15:37;7.70;;;2.80;;
58784;SDS011;44557;51.862;19.378;2023-08-12T05:17:39;7.10;;;2.50;;
58784;SDS011;44557;51.862;19.378;2023-08-12T05:19:41;6.60;;;2.70;;
58784;SDS011;44557;51.862;19.378;2023-08-12T05:21:42;6.80;;;2.30;;
58784;SDS011;44557;51.862;19.378;2023-08-12T05:23:44;6.70;;;2.90;;
58784;SDS011;44557;51.862;19.378;2023-08-12T05:25:46;8.10;;;2.60;;
58784;SDS011;44557;51.862;19.378;2023-08-12T05:27:51;5.40;;;2.30;;
58784;SDS011;44557;51.862;19.378;2023-08-12T05:29:56;6.80;;;2.70;;
58784;SDS011;44557;51.862;19.378;2023-08-12T05:31:58;5.40;;;2.60;;
58784;SDS011;44557;51.862;19.378;2023-08-12T05:33:59;5.20;;;2.40;;
58784;SDS011;44557;51.862;19.378;2023-08-12T05:36:01;8.10;;;2.70;;
58784;SDS011;44557;51.862;19.378;2023-08-12T05:38:04;6.90;;;2.60;;
58784;SDS011;44557;51.862;19.378;2023-08-12T05:40:07;6.10;;;2.40;;
58784;SDS011;44557;51.862;19.378;2023-08-12T05:42:11;5.70;;;2.50;;
58784;SDS011;44557;51.862;19.378;2023-08-12T05:44:13;6.10;;;2.40;;
58784;SDS011;44557;51.862;19.378;2023-08-12T05:46:15;9.90;;;2.90;;
58784;SDS011;44557;51.862;19.378;2023-08-12T05:48:19;7.20;;;2.60;;
58784;SDS011;44557;51.862;19.378;2023-08-12T05:50:21;8.90;;;2.90;;
58784;SDS011;44557;51.862;19.378;2023-08-12T05:52:23;5.20;;;2.60;;
58784;SDS011;44557;51.862;19.378;2023-08-12T05:54:25;8.40;;;3.00;;
58784;SDS011;44557;51.862;19.378;2023-08-12T05:56:27;7.50;;;2.30;;
58784;SDS011;44557;51.862;19.378;2023-08-12T05:58:29;7.00;;;2.80;;
58784;SDS011;44557;51.862;19.378;2023-08-12T06:00:31;6.20;;;2.50;;
58784;SDS011;44557;51.862;19.378;2023-08-12T06:02:32;7.00;;;2.80;;
58784;SDS011;44557;51.862;19.378;2023-08-12T06:04:35;8.50;;;2.50;;
58784;SDS011;44557;51.862;19.378;2023-08-12T06:06:36;8.90;;;2.50;;
58784;SDS011;44557;51.862;19.378;2023-08-12T06:08:39;8.10;;;2.70;;
58784;SDS011;44557;51.862;19.378;2023-08-12T06:10:40;7.00;;;2.70;;
58784;SDS011;44557;51.862;19.378;2023-08-12T06:12:43;6.80;;;2.90;;
58784;SDS011;44557;51.862;19.378;2023-08-12T06:14:47;9.70;;;2.90;;
58784;SDS011;44557;51.862;19.378;2023-08-12T06:16:49;9.90;;;2.80;;
58784;SDS011;44557;51.862;19.378;2023-08-12T06:18:51;9.70;;;2.80;;
58784;SDS011;44557;51.862;19.378;2023-08-12T06:20:53;9.70;;;2.90;;
58784;SDS011;44557;51.862;19.378;2023-08-12T06:22:55;6.50;;;2.50;;
58784;SDS011;44557;51.862;19.378;2023-08-12T06:24:57;12.10;;;3.40;;
58784;SDS011;44557;51.862;19.378;2023-08-12T06:26:58;8.20;;;3.00;;
58784;SDS011;44557;51.862;19.378;2023-08-12T06:29:00;6.90;;;2.60;;
58784;SDS011;44557;51.862;19.378;2023-08-12T06:31:02;9.20;;;2.40;;
58784;SDS011;44557;51.862;19.378;2023-08-12T06:33:04;6.90;;;2.50;;
58784;SDS011;44557;51.862;19.378;2023-08-12T06:35:08;7.90;;;2.40;;
58784;SDS011;44557;51.862;19.378;2023-08-12T06:37:10;8.90;;;2.50;;
58784;SDS011;44557;51.862;19.378;2023-08-12T06:39:12;11.50;;;2.60;;
58784;SDS011;44557;51.862;19.378;2023-08-12T06:41:15;8.40;;;2.40;;
58784;SDS011;44557;51.862;19.378;2023-08-12T06:43:16;8.30;;;3.30;;
58784;SDS011;44557;51.862;19.378;2023-08-12T06:45:18;7.20;;;2.40;;
58784;SDS011;44557;51.862;19.378;2023-08-12T06:47:20;7.80;;;2.60;;
58784;SDS011;44557;51.862;19.378;2023-08-12T06:49:22;5.10;;;2.20;;
58784;SDS011;44557;51.862;19.378;2023-08-12T06:51:24;10.10;;;2.50;;
58784;SDS011;44557;51.862;19.378;2023-08-12T06:53:26;7.10;;;2.10;;
58784;SDS011;44557;51.862;19.378;2023-08-12T06:55:28;4.50;;;1.90;;
58784;SDS011;44557;51.862;19.378;2023-08-12T06:57:29;4.10;;;1.80;;
58784;SDS011;44557;51.862;19.378;2023-08-12T06:59:31;5.80;;;2.10;;
58784;SDS011;44557;51.862;19.378;2023-08-12T07:01:33;6.60;;;1.90;;
58784;SDS011;44557;51.862;19.378;2023-08-12T07:03:35;6.80;;;1.90;;
58784;SDS011;44557;51.862;19.378;2023-08-12T07:05:37;5.30;;;1.80;;
58784;SDS011;44557;51.862;19.378;2023-08-12T07:07:38;7.10;;;2.20;;
58784;SDS011;44557;51.862;19.378;2023-08-12T07:09:40;5.60;;;1.70;;
58784;SDS011;44557;51.862;19.378;2023-08-12T07:11:42;6.70;;;2.10;;
58784;SDS011;44557;51.862;19.378;2023-08-12T07:13:44;5.80;;;1.80;;
58784;SDS011;44557;51.862;19.378;2023-08-12T07:15:47;5.50;;;2.00;;
58784;SDS011;44557;51.862;19.378;2023-08-12T07:17:49;7.30;;;2.10;;
58784;SDS011;44557;51.862;19.378;2023-08-12T07:19:51;6.10;;;2.10;;
58784;SDS011;44557;51.862;19.378;2023-08-12T07:21:52;6.00;;;1.90;;
58784;SDS011;44557;51.862;19.378;2023-08-12T07:23:54;6.90;;;1.70;;
58784;SDS011;44557;51.862;19.378;2023-08-12T07:25:57;5.80;;;1.90;;
58784;SDS011;44557;51.862;19.378;2023-08-12T07:27:59;7.30;;;2.10;;
58784;SDS011;44557;51.862;19.378;2023-08-12T07:30:01;5.40;;;1.90;;
58784;SDS011;44557;51.862;19.378;2023-08-12T07:32:02;7.30;;;1.80;;
58784;SDS011;44557;51.862;19.378;2023-08-12T07:34:04;4.50;;;2.00;;
58784;SDS011;44557;51.862;19.378;2023-08-12T07:36:06;8.30;;;2.30;;
58784;SDS011;44557;51.862;19.378;2023-08-12T07:38:08;5.00;;;1.90;;
58784;SDS011;44557;51.862;19.378;2023-08-12T07:40:10;3.90;;;1.40;;
58784;SDS011;44557;51.862;19.378;2023-08-12T07:42:14;5.90;;;1.60;;
58784;SDS011;44557;51.862;19.378;2023-08-12T07:44:16;7.30;;;2.60;;
58784;SDS011;44557;51.862;19.378;2023-08-12T07:46:18;8.30;;;3.60;;
58784;SDS011;44557;51.862;19.378;2023-08-12T07:48:20;7.60;;;2.40;;
58784;SDS011;44557;51.862;19.378;2023-08-12T07:50:22;6.60;;;1.90;;
58784;SDS011;44557;51.862;19.378;2023-08-12T07:52:24;7.00;;;1.80;;
58784;SDS011;44557;51.862;19.378;2023-08-12T07:54:26;5.80;;;1.50;;
58784;SDS011;44557;51.862;19.378;2023-08-12T07:56:28;5.10;;;2.30;;
58784;SDS011;44557;51.862;19.378;2023-08-12T07:58:30;5.10;;;1.70;;
58784;SDS011;44557;51.862;19.378;2023-08-12T08:00:32;5.70;;;1.70;;
58784;SDS011;44557;51.862;19.378;2023-08-12T08:02:34;4.50;;;1.70;;
58784;SDS011;44557;51.862;19.378;2023-08-12T08:04:36;5.90;;;2.30;;
58784;SDS011;44557;51.862;19.378;2023-08-12T08:06:37;6.00;;;2.00;;
58784;SDS011;44557;51.862;19.378;2023-08-12T08:08:39;5.30;;;1.70;;
58784;SDS011;44557;51.862;19.378;2023-08-12T08:10:41;5.70;;;1.80;;
58784;SDS011;44557;51.862;19.378;2023-08-12T08:12:42;5.10;;;1.80;;
58784;SDS011;44557;51.862;19.378;2023-08-12T08:14:44;5.00;;;1.70;;
58784;SDS011;44557;51.862;19.378;2023-08-12T08:16:46;4.50;;;1.90;;
58784;SDS011;44557;51.862;19.378;2023-08-12T08:18:48;6.20;;;2.10;;
58784;SDS011;44557;51.862;19.378;2023-08-12T08:20:50;5.90;;;2.10;;
58784;SDS011;44557;51.862;19.378;2023-08-12T08:22:51;5.30;;;1.80;;
58784;SDS011;44557;51.862;19.378;2023-08-12T08:24:56;4.50;;;2.10;;
58784;SDS011;44557;51.862;19.378;2023-08-12T08:26:58;4.40;;;1.70;;
58784;SDS011;44557;51.862;19.378;2023-08-12T08:29:00;4.50;;;1.60;;
58784;SDS011;44557;51.862;19.378;2023-08-12T08:31:01;4.20;;;1.80;;
58784;SDS011;44557;51.862;19.378;2023-08-12T08:33:03;4.10;;;1.40;;
58784;SDS011;44557;51.862;19.378;2023-08-12T08:35:06;4.70;;;1.90;;
58784;SDS011;44557;51.862;19.378;2023-08-12T08:37:07;6.90;;;1.90;;
58784;SDS011;44557;51.862;19.378;2023-08-12T08:39:09;5.60;;;2.00;;
58784;SDS011;44557;51.862;19.378;2023-08-12T08:41:11;4.60;;;1.90;;
58784;SDS011;44557;51.862;19.378;2023-08-12T08:43:15;5.40;;;1.80;;
58784;SDS011;44557;51.862;19.378;2023-08-12T08:45:21;4.80;;;2.10;;
58784;SDS011;44557;51.862;19.378;2023-08-12T08:47:25;7.30;;;2.10;;
58784;SDS011;44557;51.862;19.378;2023-08-12T08:49:28;2.90;;;1.50;;
58784;SDS011;44557;51.862;19.378;2023-08-12T08:51:33;4.40;;;1.70;;
58784;SDS011;44557;51.862;19.378;2023-08-12T08:53:37;4.30;;;1.80;;
58784;SDS011;44557;51.862;19.378;2023-08-12T08:55:40;4.70;;;2.00;;
58784;SDS011;44557;51.862;19.378;2023-08-12T08:57:43;5.10;;;1.90;;
58784;SDS011;44557;51.862;19.378;2023-08-12T08:59:46;6.60;;;2.40;;
58784;SDS011;44557;51.862;19.378;2023-08-12T09:01:48;3.60;;;1.70;;
58784;SDS011;44557;51.862;19.378;2023-08-12T09:03:52;5.80;;;1.70;;
58784;SDS011;44557;51.862;19.378;2023-08-12T09:05:54;3.90;;;1.60;;
58784;SDS011;44557;51.862;19.378;2023-08-12T09:07:58;4.00;;;1.70;;
58784;SDS011;44557;51.862;19.378;2023-08-12T09:10:01;3.80;;;1.70;;
58784;SDS011;44557;51.862;19.378;2023-08-12T09:12:05;4.30;;;1.70;;
58784;SDS011;44557;51.862;19.378;2023-08-12T09:14:08;5.00;;;1.70;;
58784;SDS011;44557;51.862;19.378;2023-08-12T09:16:10;3.80;;;1.60;;
58784;SDS011;44557;51.862;19.378;2023-08-12T09:18:12;5.90;;;2.00;;
58784;SDS011;44557;51.862;19.378;2023-08-12T09:20:15;5.70;;;1.60;;
58784;SDS011;44557;51.862;19.378;2023-08-12T09:22:17;4.00;;;1.50;;
58784;SDS011;44557;51.862;19.378;2023-08-12T09:24:25;5.20;;;1.80;;
58784;SDS011;44557;51.862;19.378;2023-08-12T09:26:28;5.90;;;1.70;;
58784;SDS011;44557;51.862;19.378;2023-08-12T09:28:30;3.90;;;1.70;;
58784;SDS011;44557;51.862;19.378;2023-08-12T09:30:33;3.90;;;1.60;;
58784;SDS011;44557;51.862;19.378;2023-08-12T09:32:35;5.90;;;1.70;;
58784;SDS011;44557;51.862;19.378;2023-08-12T09:34:36;4.50;;;2.00;;
58784;SDS011;44557;51.862;19.378;2023-08-12T09:36:39;3.80;;;1.50;;
58784;SDS011;44557;51.862;19.378;2023-08-12T09:38:42;3.70;;;1.40;;
58784;SDS011;44557;51.862;19.378;2023-08-12T09:40:46;5.50;;;1.70;;
58784;SDS011;44557;51.862;19.378;2023-08-12T09:42:50;3.40;;;1.60;;
58784;SDS011;44557;51.862;19.378;2023-08-12T09:44:53;6.20;;;1.60;;
58784;SDS011;44557;51.862;19.378;2023-08-12T09:46:58;6.00;;;1.90;;
58784;SDS011;44557;51.862;19.378;2023-08-12T09:49:00;3.40;;;1.80;;
58784;SDS011;44557;51.862;19.378;2023-08-12T09:51:02;5.90;;;1.90;;
58784;SDS011;44557;51.862;19.378;2023-08-12T09:53:04;5.10;;;2.00;;
58784;SDS011;44557;51.862;19.378;2023-08-12T09:55:05;4.90;;;1.60;;
58784;SDS011;44557;51.862;19.378;2023-08-12T09:57:09;4.80;;;1.80;;
58784;SDS011;44557;51.862;19.378;2023-08-12T09:59:12;8.50;;;2.10;;
58784;SDS011;44557;51.862;19.378;2023-08-12T10:03:49;5.60;;;1.80;;
58784;SDS011;44557;51.862;19.378;2023-08-12T10:05:52;3.40;;;1.90;;
58784;SDS011;44557;51.862;19.378;2023-08-12T10:07:54;5.20;;;2.00;;
58784;SDS011;44557;51.862;19.378;2023-08-12T10:09:56;5.90;;;2.10;;
58784;SDS011;44557;51.862;19.378;2023-08-12T10:11:59;5.40;;;1.90;;
58784;SDS011;44557;51.862;19.378;2023-08-12T10:14:01;6.80;;;1.90;;
58784;SDS011;44557;51.862;19.378;2023-08-12T10:16:05;3.20;;;1.80;;
58784;SDS011;44557;51.862;19.378;2023-08-12T10:18:07;5.90;;;1.90;;
58784;SDS011;44557;51.862;19.378;2023-08-12T10:20:16;4.40;;;1.70;;
58784;SDS011;44557;51.862;19.378;2023-08-12T10:22:24;4.90;;;1.80;;
58784;SDS011;44557;51.862;19.378;2023-08-12T10:24:28;3.20;;;1.60;;
58784;SDS011;44557;51.862;19.378;2023-08-12T10:26:32;4.50;;;1.70;;
58784;SDS011;44557;51.862;19.378;2023-08-12T10:28:34;4.90;;;1.60;;
58784;SDS011;44557;51.862;19.378;2023-08-12T10:30:39;4.80;;;1.80;;
58784;SDS011;44557;51.862;19.378;2023-08-12T10:32:43;8.50;;;5.00;;
58784;SDS011;44557;51.862;19.378;2023-08-12T10:34:45;3.30;;;1.70;;
58784;SDS011;44557;51.862;19.378;2023-08-12T10:36:47;3.90;;;1.70;;
58784;SDS011;44557;51.862;19.378;2023-08-12T10:38:50;3.30;;;1.40;;
58784;SDS011;44557;51.862;19.378;2023-08-12T10:40:51;6.20;;;1.80;;
58784;SDS011;44557;51.862;19.378;2023-08-12T10:42:53;3.60;;;1.40;;
58784;SDS011;44557;51.862;19.378;2023-08-12T10:44:57;6.90;;;1.80;;
58784;SDS011;44557;51.862;19.378;2023-08-12T10:46:59;3.90;;;1.50;;
58784;SDS011;44557;51.862;19.378;2023-08-12T10:49:07;5.40;;;2.10;;
58784;SDS011;44557;51.862;19.378;2023-08-12T10:51:10;4.20;;;1.80;;
58784;SDS011;44557;51.862;19.378;2023-08-12T10:59:50;5.90;;;2.10;;
58784;SDS011;44557;51.862;19.378;2023-08-12T11:01:52;4.50;;;1.70;;
58784;SDS011;44557;51.862;19.378;2023-08-12T11:03:54;7.10;;;1.90;;
58784;SDS011;44557;51.862;19.378;2023-08-12T11:05:59;3.70;;;1.60;;
58784;SDS011;44557;51.862;19.378;2023-08-12T11:08:01;3.40;;;1.40;;
58784;SDS011;44557;51.862;19.378;2023-08-12T11:10:05;5.60;;;1.70;;
58784;SDS011;44557;51.862;19.378;2023-08-12T11:12:11;5.20;;;2.00;;
58784;SDS011;44557;51.862;19.378;2023-08-12T11:14:18;5.00;;;1.60;;
58784;SDS011;44557;51.862;19.378;2023-08-12T11:16:20;2.60;;;1.40;;
58784;SDS011;44557;51.862;19.378;2023-08-12T11:18:34;3.80;;;1.50;;
58784;SDS011;44557;51.862;19.378;2023-08-12T11:20:37;4.00;;;1.50;;
58784;SDS011;44557;51.862;19.378;2023-08-12T11:22:40;4.10;;;1.60;;
58784;SDS011;44557;51.862;19.378;2023-08-12T11:24:43;5.70;;;1.80;;
58784;SDS011;44557;51.862;19.378;2023-08-12T11:26:47;2.90;;;1.60;;
58784;SDS011;44557;51.862;19.378;2023-08-12T11:28:50;5.00;;;1.60;;
58784;SDS011;44557;51.862;19.378;2023-08-12T11:30:52;3.30;;;1.40;;
58784;SDS011;44557;51.862;19.378;2023-08-12T11:32:54;3.80;;;1.50;;
58784;SDS011;44557;51.862;19.378;2023-08-12T11:34:57;3.80;;;1.60;;
58784;SDS011;44557;51.862;19.378;2023-08-12T11:36:59;4.00;;;1.80;;
58784;SDS011;44557;51.862;19.378;2023-08-12T11:39:02;2.90;;;1.30;;
58784;SDS011;44557;51.862;19.378;2023-08-12T11:41:05;5.30;;;1.70;;
58784;SDS011;44557;51.862;19.378;2023-08-12T11:43:07;3.00;;;1.60;;
58784;SDS011;44557;51.862;19.378;2023-08-12T11:45:08;4.00;;;1.60;;
58784;SDS011;44557;51.862;19.378;2023-08-12T11:47:10;5.80;;;1.70;;
58784;SDS011;44557;51.862;19.378;2023-08-12T11:49:12;3.30;;;1.60;;
58784;SDS011;44557;51.862;19.378;2023-08-12T11:51:13;3.50;;;1.70;;
58784;SDS011;44557;51.862;19.378;2023-08-12T11:53:15;3.60;;;1.50;;
58784;SDS011;44557;51.862;19.378;2023-08-12T11:55:18;4.30;;;1.50;;
58784;SDS011;44557;51.862;19.378;2023-08-12T11:57:21;2.90;;;1.40;;
58784;SDS011;44557;51.862;19.378;2023-08-12T11:59:24;4.40;;;1.50;;
58784;SDS011;44557;51.862;19.378;2023-08-12T12:01:27;4.60;;;1.80;;
58784;SDS011;44557;51.862;19.378;2023-08-12T12:03:30;4.00;;;1.50;;
58784;SDS011;44557;51.862;19.378;2023-08-12T12:05:32;5.10;;;1.90;;
58784;SDS011;44557;51.862;19.378;2023-08-12T12:07:36;4.90;;;1.70;;
58784;SDS011;44557;51.862;19.378;2023-08-12T12:09:40;3.60;;;1.40;;
58784;SDS011;44557;51.862;19.378;2023-08-12T12:11:44;2.60;;;1.40;;
58784;SDS011;44557;51.862;19.378;2023-08-12T12:13:46;4.60;;;1.70;;
58784;SDS011;44557;51.862;19.378;2023-08-12T12:15:48;3.90;;;1.90;;
58784;SDS011;44557;51.862;19.378;2023-08-12T12:17:50;3.90;;;1.60;;
58784;SDS011;44557;51.862;19.378;2023-08-12T12:19:54;1.80;;;1.10;;
58784;SDS011;44557;51.862;19.378;2023-08-12T12:21:56;2.10;;;1.40;;
58784;SDS011;44557;51.862;19.378;2023-08-12T12:23:58;5.40;;;1.70;;
58784;SDS011;44557;51.862;19.378;2023-08-12T12:26:00;4.40;;;1.70;;
58784;SDS011;44557;51.862;19.378;2023-08-12T12:28:03;4.90;;;1.80;;
58784;SDS011;44557;51.862;19.378;2023-08-12T12:30:08;3.20;;;1.60;;
58784;SDS011;44557;51.862;19.378;2023-08-12T12:32:12;5.30;;;1.50;;